createdAt,value
2023-04-09T00:00:22.101Z,1024
2023-04-09T00:15:30.021Z,1024
2023-04-09T00:30:19.488Z,1023.9
2023-04-09T00:45:19.521Z,1023.8
2023-04-09T01:00:18.746Z,1023.8
2023-04-09T01:15:19.094Z,1023.8
2023-04-09T01:30:19.284Z,1023.9
2023-04-09T01:45:18.792Z,1023.8
2023-04-09T02:00:18.718Z,1023.7
2023-04-09T02:15:19.253Z,1023.6
2023-04-09T02:30:18.600Z,1023.6
2023-04-09T02:45:18.836Z,1023.5
2023-04-09T03:00:19.855Z,1023.4
2023-04-09T03:15:19.398Z,1023.2
2023-04-09T03:30:19.066Z,1023.2
2023-04-09T03:45:19.230Z,1023.2
2023-04-09T04:02:30.094Z,1023.2
2023-04-09T04:15:19.021Z,1023.3
2023-04-09T04:30:19.325Z,1023.3
2023-04-09T04:45:19.103Z,1023.3
2023-04-09T05:00:18.682Z,1023.4
2023-04-09T05:15:39.194Z,1023.4
2023-04-09T05:30:19.046Z,1023.5
2023-04-09T05:45:19.114Z,1023.5
2023-04-09T06:00:18.984Z,1023.5
2023-04-09T06:15:19.530Z,1023.5
2023-04-09T06:30:19.452Z,1023.7
2023-04-09T06:45:19.036Z,1023.7
2023-04-09T07:00:19.699Z,1023.6
2023-04-09T07:15:18.785Z,1023.7
2023-04-09T07:30:19.034Z,1023.8
2023-04-09T07:45:19.302Z,1023.8
2023-04-09T08:00:19.401Z,1023.8
2023-04-09T08:15:19.301Z,1023.8
2023-04-09T08:30:19.786Z,1023.8
2023-04-09T08:45:19.854Z,1023.9
2023-04-09T09:00:18.881Z,1023.9
2023-04-09T09:15:19.746Z,1023.9
2023-04-09T09:30:19.845Z,1023.9
2023-04-09T09:45:19.456Z,1023.9
2023-04-09T10:00:19.842Z,1023.9
2023-04-09T10:15:18.578Z,1023.9
2023-04-09T10:30:20.533Z,1023.7
2023-04-09T10:45:22.539Z,1023.7
2023-04-09T11:00:18.952Z,1023.6
2023-04-09T11:15:19.521Z,1023.6
2023-04-09T11:30:19.574Z,1023.6
2023-04-09T11:45:19.616Z,1023.5
2023-04-09T12:00:18.948Z,1023.4
2023-04-09T12:15:18.682Z,1023.3
2023-04-09T12:30:18.896Z,1023.2
2023-04-09T12:45:18.809Z,1023.1
2023-04-09T13:00:19.458Z,1023
2023-04-09T13:15:19.002Z,1023
2023-04-09T13:30:19.442Z,1022.9
2023-04-09T13:45:19.405Z,1022.8
2023-04-09T14:00:19.380Z,1022.7
2023-04-09T14:15:19.522Z,1022.7
2023-04-09T14:30:18.992Z,1022.5
2023-04-09T14:45:19.394Z,1022.5
2023-04-09T15:00:20.125Z,1022.3
2023-04-09T15:15:19.243Z,1022
2023-04-09T15:30:18.858Z,1021.8
2023-04-09T15:45:19.880Z,1021.8
2023-04-09T16:00:18.592Z,1021.8
2023-04-09T16:15:19.255Z,1021.7
2023-04-09T16:30:18.828Z,1021.7
2023-04-09T16:45:19.391Z,1021.6
2023-04-09T17:00:20.077Z,1021.5
2023-04-09T17:15:19.096Z,1021.6
2023-04-09T17:30:19.209Z,1021.5
2023-04-09T17:45:19.355Z,1021.4
2023-04-09T18:00:18.810Z,1021.4
2023-04-09T18:15:19.316Z,1021.5
2023-04-09T18:30:19.399Z,1021.6
2023-04-09T18:45:19.164Z,1021.6
2023-04-09T19:00:18.991Z,1021.7
2023-04-09T19:15:19.498Z,1022
2023-04-09T19:30:19.316Z,1022
2023-04-09T19:45:19.000Z,1021.9
2023-04-09T20:00:21.078Z,1021.9
2023-04-09T20:15:19.561Z,1021.9
2023-04-09T20:30:19.417Z,1021.9
2023-04-09T20:45:19.273Z,1021.8
2023-04-09T21:00:18.773Z,1021.7
2023-04-09T21:15:19.523Z,1021.5
2023-04-09T21:30:19.154Z,1021.5
2023-04-09T21:45:19.265Z,1021.4
2023-04-09T22:00:19.972Z,1021.5
2023-04-09T22:15:19.547Z,1021.5
2023-04-09T22:30:19.013Z,1021.4
2023-04-09T22:45:20.469Z,1021.3
2023-04-09T23:00:19.554Z,1021.3
2023-04-09T23:15:18.776Z,1021.2
2023-04-09T23:30:19.484Z,1021.2
2023-04-09T23:45:19.281Z,1021.3
